Time;durP1;ratioP1;P1;durP2;ratioP2;P2;SDS_P1;SDS_P2;PMS_P1;PMS_P2;Temp;Humidity;BMP_temperature;BMP_pressure;BME280_temperature;BME280_humidity;BME280_pressure;Samples;Min_cycle;Max_cycle;Signal;HPM_P1;HPM_P2
2021/04/09 00:00:42;;;;;;;0.30;0.30;;;3.00;99.90;;;;;;4956841;28;20177;-81
2021/04/09 00:03:08;;;;;;;0.50;0.40;;;3.00;99.90;;;;;;4969227;28;20590;-81
2021/04/09 00:05:34;;;;;;;0.30;0.30;;;3.10;99.90;;;;;;4951380;28;20208;-81
2021/04/09 00:08:01;;;;;;;0.00;0.00;;;3.20;99.90;;;;;;4981273;28;20192;-80
2021/04/09 00:10:27;;;;;;;0.20;0.20;;;3.40;99.90;;;;;;4956287;28;20177;-81
2021/04/09 00:12:53;;;;;;;0.10;0.10;;;3.50;99.90;;;;;;4954399;28;20564;-80
2021/04/09 00:15:19;;;;;;;0.63;0.30;;;3.40;99.90;;;;;;4958215;28;20688;-81
2021/04/09 00:17:45;;;;;;;0.20;0.20;;;3.30;99.90;;;;;;4968812;28;20185;-80
2021/04/09 00:20:14;;;;;;;0.10;0.10;;;3.30;99.90;;;;;;4940739;28;20187;-81
2021/04/09 00:22:40;;;;;;;0.20;0.20;;;3.10;99.90;;;;;;4967872;28;20219;-79
2021/04/09 00:25:08;;;;;;;0.10;0.10;;;3.10;99.90;;;;;;4974899;28;20197;-80
2021/04/09 00:27:33;;;;;;;0.10;0.10;;;3.00;99.90;;;;;;4958586;28;20184;-81
2021/04/09 00:29:59;;;;;;;0.10;0.10;;;2.90;99.90;;;;;;4983579;28;20773;-80
2021/04/09 00:32:25;;;;;;;0.00;0.00;;;2.90;99.90;;;;;;4968891;28;20338;-81
2021/04/09 00:34:50;;;;;;;0.10;0.10;;;3.00;99.90;;;;;;4969568;28;20215;-81
2021/04/09 00:37:16;;;;;;;0.10;0.10;;;3.10;99.90;;;;;;4977511;28;20184;-80
2021/04/09 00:39:41;;;;;;;0.20;0.20;;;2.90;99.90;;;;;;4962898;28;20184;-81
2021/04/09 00:42:07;;;;;;;0.10;0.10;;;3.10;99.90;;;;;;4974291;28;20210;-81
2021/04/09 00:44:33;;;;;;;0.10;0.10;;;3.10;99.90;;;;;;4979123;28;20195;-81
2021/04/09 00:46:58;;;;;;;0.00;0.00;;;2.90;99.90;;;;;;4957719;28;20193;-81
2021/04/09 00:49:24;;;;;;;0.40;0.13;;;2.80;99.90;;;;;;4959238;28;20200;-80
2021/04/09 00:51:49;;;;;;;1.33;0.53;;;2.90;99.90;;;;;;4954120;28;20255;-81
2021/04/09 00:54:15;;;;;;;0.20;0.20;;;3.00;99.90;;;;;;4957887;28;20239;-81
2021/04/09 00:56:41;;;;;;;0.40;0.30;;;3.10;99.90;;;;;;4952831;28;20182;-81
2021/04/09 00:59:06;;;;;;;0.10;0.10;;;3.10;99.90;;;;;;4975670;28;20249;-79
2021/04/09 01:01:32;;;;;;;0.80;0.33;;;3.00;99.90;;;;;;4958947;28;20187;-81
2021/04/09 01:03:58;;;;;;;0.23;0.23;;;2.90;99.90;;;;;;4948214;28;20200;-81
2021/04/09 01:06:24;;;;;;;0.60;0.60;;;2.70;99.90;;;;;;4951604;28;20208;-81
2021/04/09 01:08:50;;;;;;;0.17;0.17;;;2.70;99.90;;;;;;4957881;28;20192;-81
2021/04/09 01:11:17;;;;;;;0.83;0.83;;;2.70;99.90;;;;;;4971606;28;20534;-79
2021/04/09 01:13:45;;;;;;;0.00;0.00;;;2.70;99.90;;;;;;4965889;28;20184;-81
2021/04/09 01:16:28;;;;;;;0.67;0.27;;;2.70;99.90;;;;;;4963378;28;20208;-81
2021/04/09 01:19:35;;;;;;;0.20;0.20;;;2.70;99.90;;;;;;4960609;28;20194;-81
2021/04/09 01:22:03;;;;;;;0.20;0.20;;;2.70;99.90;;;;;;4962728;28;20216;-80
2021/04/09 01:24:46;;;;;;;0.10;0.10;;;2.80;99.90;;;;;;4945065;28;20250;-80
2021/04/09 01:27:31;;;;;;;0.17;0.17;;;2.60;99.90;;;;;;4961836;28;20188;-81
2021/04/09 01:30:09;;;;;;;0.53;0.40;;;2.50;99.90;;;;;;4949603;28;20684;-81
2021/04/09 01:32:35;;;;;;;0.50;0.50;;;2.50;99.90;;;;;;4962457;28;20216;-80
2021/04/09 01:35:09;;;;;;;0.10;0.10;;;2.50;99.90;;;;;;4969469;28;20710;-81
2021/04/09 01:37:41;;;;;;;0.10;0.10;;;2.40;99.90;;;;;;4953086;28;20279;-81
2021/04/09 01:40:35;;;;;;;0.10;0.10;;;2.40;99.90;;;;;;4968631;28;20388;-83
2021/04/09 01:43:36;;;;;;;0.00;0.00;;;2.30;99.90;;;;;;4950360;28;20251;-83
2021/04/09 01:46:04;;;;;;;0.13;0.13;;;2.20;99.90;;;;;;4957107;28;20218;-83
2021/04/09 01:48:32;;;;;;;0.30;0.30;;;2.10;99.90;;;;;;4974650;28;20201;-83
2021/04/09 01:51:00;;;;;;;0.00;0.00;;;2.20;99.90;;;;;;4973918;28;20210;-83
2021/04/09 01:53:28;;;;;;;0.10;0.10;;;2.30;99.90;;;;;;4959859;28;20214;-83
2021/04/09 01:55:54;;;;;;;0.20;0.20;;;2.30;99.90;;;;;;4974498;28;20200;-82
2021/04/09 01:58:21;;;;;;;0.10;0.10;;;2.30;99.90;;;;;;4957002;28;20206;-82
2021/04/09 02:00:47;;;;;;;1.90;0.70;;;2.30;99.90;;;;;;4955975;28;20213;-84
2021/04/09 02:03:14;;;;;;;0.60;0.33;;;2.30;99.90;;;;;;4966372;28;20258;-83
2021/04/09 02:05:41;;;;;;;0.10;0.10;;;2.30;99.90;;;;;;4960316;28;20262;-83
2021/04/09 02:08:10;;;;;;;0.20;0.20;;;2.20;99.90;;;;;;4973606;28;20565;-83
2021/04/09 02:10:37;;;;;;;0.10;0.10;;;2.20;99.90;;;;;;4954474;28;20662;-84
2021/04/09 02:13:02;;;;;;;0.10;0.10;;;2.20;99.90;;;;;;4973758;28;20210;-83
2021/04/09 02:15:29;;;;;;;0.10;0.10;;;2.10;99.90;;;;;;4974530;28;20212;-82
2021/04/09 02:17:55;;;;;;;0.30;0.30;;;2.10;99.90;;;;;;4949108;28;20275;-84
2021/04/09 02:20:22;;;;;;;0.20;0.20;;;2.10;99.90;;;;;;4973821;28;20282;-83
2021/04/09 02:22:50;;;;;;;0.20;0.20;;;2.10;99.90;;;;;;4973584;28;20641;-83
2021/04/09 02:25:19;;;;;;;2.73;0.97;;;2.00;99.90;;;;;;4973981;28;20202;-83
2021/04/09 02:27:46;;;;;;;0.00;0.00;;;2.00;99.90;;;;;;5037801;22;20240;-80
2021/04/09 02:30:14;;;;;;;0.10;0.10;;;1.90;99.90;;;;;;5032317;28;20207;-81
2021/04/09 02:32:40;;;;;;;0.20;0.20;;;2.00;99.90;;;;;;5029475;28;20195;-81
2021/04/09 02:35:07;;;;;;;0.13;0.13;;;1.90;99.90;;;;;;5030466;28;20305;-81
2021/04/09 02:37:33;;;;;;;0.10;0.10;;;2.00;99.90;;;;;;5029805;28;20582;-81
2021/04/09 02:40:04;;;;;;;0.00;0.00;;;1.90;99.90;;;;;;5030365;28;20184;-81
2021/04/09 02:42:30;;;;;;;0.10;0.10;;;2.00;99.90;;;;;;5030880;28;20654;-80
2021/04/09 02:44:56;;;;;;;0.10;0.10;;;2.10;99.90;;;;;;5027720;28;20219;-81
2021/04/09 02:47:24;;;;;;;0.10;0.10;;;2.20;99.90;;;;;;5022710;28;20212;-81
2021/04/09 02:50:10;;;;;;;0.93;0.63;;;2.20;99.90;;;;;;5030038;28;20325;-81
2021/04/09 02:52:43;;;;;;;0.20;0.20;;;2.20;99.90;;;;;;5029362;28;20186;-81
2021/04/09 02:55:13;;;;;;;0.00;0.00;;;2.20;99.90;;;;;;5031804;28;20236;-80
2021/04/09 02:57:40;;;;;;;0.10;0.10;;;2.30;99.90;;;;;;5032436;28;20585;-80
2021/04/09 03:00:07;;;;;;;0.20;0.20;;;2.30;99.90;;;;;;5040376;28;20198;-81
2021/04/09 03:02:34;;;;;;;0.20;0.20;;;2.30;99.90;;;;;;5025357;28;20186;-81
2021/04/09 03:05:01;;;;;;;0.20;0.20;;;2.40;99.90;;;;;;5049662;28;20176;-80
2021/04/09 03:07:27;;;;;;;0.10;0.10;;;2.40;99.90;;;;;;5054829;28;20207;-79
2021/04/09 03:09:53;;;;;;;0.20;0.20;;;2.40;99.90;;;;;;5056756;28;20187;-79
2021/04/09 03:12:20;;;;;;;0.10;0.10;;;2.40;99.90;;;;;;5054429;28;20190;-79
2021/04/09 03:14:48;;;;;;;0.20;0.20;;;2.40;99.90;;;;;;5030254;28;20702;-81
2021/04/09 03:17:27;;;;;;;0.13;0.13;;;2.40;99.90;;;;;;5022281;28;20627;-81
2021/04/09 03:19:53;;;;;;;0.00;0.00;;;2.50;99.90;;;;;;5029661;28;20273;-81
2021/04/09 03:22:19;;;;;;;0.10;0.10;;;2.40;99.90;;;;;;5030103;28;20196;-80
2021/04/09 03:24:44;;;;;;;0.53;0.40;;;2.50;99.90;;;;;;5023273;28;20270;-82
2021/04/09 03:27:14;;;;;;;0.03;0.03;;;2.40;99.90;;;;;;5027201;28;20770;-81
2021/04/09 03:29:40;;;;;;;0.20;0.10;;;2.40;99.90;;;;;;5020429;28;20190;-81
2021/04/09 03:32:06;;;;;;;0.30;0.30;;;2.30;99.90;;;;;;5029171;28;20201;-81
2021/04/09 03:34:31;;;;;;;0.00;0.00;;;2.20;99.90;;;;;;5029601;28;20743;-80
2021/04/09 03:36:57;;;;;;;0.03;0.03;;;2.20;99.90;;;;;;5029265;28;20210;-80
2021/04/09 03:39:22;;;;;;;0.20;0.20;;;2.20;99.90;;;;;;5030417;28;20653;-81
2021/04/09 03:41:48;;;;;;;0.10;0.10;;;2.10;99.90;;;;;;5031585;28;20659;-80
2021/04/09 03:44:14;;;;;;;0.20;0.20;;;2.10;99.90;;;;;;5033636;28;20190;-80
2021/04/09 03:46:39;;;;;;;0.33;0.30;;;2.20;99.90;;;;;;5032273;28;20303;-81
2021/04/09 03:49:05;;;;;;;0.10;0.10;;;2.20;99.90;;;;;;5019298;28;20558;-80
2021/04/09 03:51:31;;;;;;;0.10;0.10;;;2.20;99.90;;;;;;5026566;28;20579;-80
2021/04/09 03:53:57;;;;;;;0.20;0.20;;;2.20;99.90;;;;;;5030980;28;20193;-81
2021/04/09 03:56:23;;;;;;;0.20;0.20;;;2.20;99.90;;;;;;5029915;28;20206;-80
2021/04/09 03:58:49;;;;;;;0.13;0.13;;;2.30;99.90;;;;;;5032638;28;20211;-80
2021/04/09 04:01:15;;;;;;;0.10;0.10;;;2.30;99.90;;;;;;5029742;28;20663;-81
2021/04/09 04:03:41;;;;;;;0.40;0.40;;;2.30;99.90;;;;;;5034143;28;20271;-80
2021/04/09 04:06:06;;;;;;;0.30;0.30;;;2.30;99.90;;;;;;5032476;28;20605;-80
2021/04/09 04:08:32;;;;;;;0.33;0.30;;;2.40;99.90;;;;;;5029024;28;20285;-81
2021/04/09 04:10:57;;;;;;;0.00;0.00;;;2.40;99.90;;;;;;5032244;28;20193;-81
2021/04/09 04:13:23;;;;;;;0.10;0.10;;;2.30;99.90;;;;;;5032490;28;20233;-81
2021/04/09 04:15:49;;;;;;;0.10;0.10;;;2.40;99.90;;;;;;5031279;28;20258;-81
2021/04/09 04:18:14;;;;;;;0.30;0.20;;;2.30;99.90;;;;;;5031272;28;20206;-81
2021/04/09 04:20:40;;;;;;;0.20;0.20;;;2.30;99.90;;;;;;5032922;28;20547;-81
2021/04/09 04:23:06;;;;;;;0.50;0.50;;;2.20;99.90;;;;;;5029922;28;20660;-80
2021/04/09 04:25:31;;;;;;;0.07;0.07;;;2.00;99.90;;;;;;5028511;28;20196;-80
2021/04/09 04:27:57;;;;;;;0.20;0.20;;;1.70;99.90;;;;;;5033116;28;20717;-80
2021/04/09 04:30:23;;;;;;;0.10;0.10;;;1.50;99.90;;;;;;5032803;28;20264;-80
2021/04/09 04:32:48;;;;;;;0.50;0.37;;;1.50;99.90;;;;;;5032783;28;20218;-81
2021/04/09 04:35:14;;;;;;;0.20;0.20;;;1.60;99.90;;;;;;5032103;28;20207;-80
2021/04/09 04:37:40;;;;;;;0.10;0.10;;;1.60;99.90;;;;;;5025171;28;20210;-80
2021/04/09 04:40:06;;;;;;;0.20;0.20;;;1.70;99.90;;;;;;5027610;28;20229;-80
2021/04/09 04:42:32;;;;;;;0.10;0.10;;;1.80;99.90;;;;;;5026969;28;20274;-80
2021/04/09 04:44:57;;;;;;;0.10;0.10;;;1.90;99.90;;;;;;5031658;28;20279;-80
2021/04/09 04:47:23;;;;;;;0.87;0.43;;;1.80;99.90;;;;;;5040329;28;20214;-80
2021/04/09 04:49:48;;;;;;;1.23;0.30;;;1.90;99.90;;;;;;5032307;28;20201;-80
2021/04/09 04:52:14;;;;;;;0.33;0.33;;;2.00;99.90;;;;;;5029053;28;20703;-79
2021/04/09 04:54:40;;;;;;;0.10;0.10;;;2.00;99.90;;;;;;5030094;28;20214;-80
2021/04/09 04:57:05;;;;;;;0.10;0.10;;;2.10;99.90;;;;;;5030912;28;20687;-79
2021/04/09 04:59:31;;;;;;;0.10;0.10;;;2.20;99.90;;;;;;5032494;28;20192;-80
2021/04/09 05:01:57;;;;;;;0.13;0.13;;;2.20;99.90;;;;;;5031316;28;20193;-80
2021/04/09 05:04:23;;;;;;;0.10;0.10;;;2.20;99.90;;;;;;5031123;28;20277;-79
2021/04/09 05:06:49;;;;;;;0.20;0.20;;;2.20;99.90;;;;;;5020615;28;20214;-80
2021/04/09 05:09:14;;;;;;;0.30;0.20;;;2.20;99.90;;;;;;5029451;28;20210;-79
2021/04/09 05:11:40;;;;;;;0.20;0.20;;;2.20;99.90;;;;;;5021755;28;20193;-79
2021/04/09 05:14:05;;;;;;;0.20;0.20;;;2.00;99.90;;;;;;5031571;28;20186;-79
2021/04/09 05:16:31;;;;;;;0.90;0.90;;;1.90;99.90;;;;;;5033589;28;20284;-79
2021/04/09 05:18:56;;;;;;;1.60;0.20;;;1.90;99.90;;;;;;5034371;28;20190;-81
2021/04/09 05:21:22;;;;;;;0.10;0.10;;;2.00;99.90;;;;;;5029377;28;20200;-81
2021/04/09 05:23:48;;;;;;;1.13;0.53;;;2.20;99.90;;;;;;5029818;28;20268;-81
2021/04/09 05:26:14;;;;;;;0.20;0.20;;;2.40;99.90;;;;;;5028239;28;20203;-81
2021/04/09 05:28:39;;;;;;;0.10;0.10;;;2.60;99.90;;;;;;5024663;28;20225;-81
2021/04/09 05:31:05;;;;;;;0.10;0.10;;;2.80;99.90;;;;;;5020991;28;20191;-81
2021/04/09 05:33:31;;;;;;;0.10;0.10;;;2.90;99.90;;;;;;5027908;28;20225;-81
2021/04/09 05:35:56;;;;;;;0.10;0.10;;;2.80;99.90;;;;;;5027695;28;20609;-81
2021/04/09 05:38:22;;;;;;;0.10;0.10;;;2.90;99.90;;;;;;5025724;28;20208;-82
2021/04/09 05:40:47;;;;;;;0.90;0.83;;;2.80;99.90;;;;;;5030753;28;20196;-83
2021/04/09 05:43:13;;;;;;;0.20;0.20;;;2.60;99.90;;;;;;5030845;28;20627;-82
2021/04/09 05:45:38;;;;;;;0.10;0.10;;;2.50;99.90;;;;;;5029779;28;20205;-81
2021/04/09 05:48:05;;;;;;;0.57;0.27;;;2.70;99.90;;;;;;5030763;28;20206;-81
2021/04/09 05:50:32;;;;;;;0.53;0.53;;;3.10;99.90;;;;;;5021316;28;20299;-81
2021/04/09 05:52:58;;;;;;;0.20;0.20;;;3.40;99.90;;;;;;5031655;28;20668;-81
2021/04/09 05:55:24;;;;;;;0.33;0.30;;;3.70;99.90;;;;;;5024680;28;20210;-81
2021/04/09 05:57:50;;;;;;;2.67;0.53;;;4.00;99.90;;;;;;5030422;28;20199;-83
2021/04/09 06:00:16;;;;;;;1.13;0.53;;;4.10;99.90;;;;;;5030114;28;20186;-82
2021/04/09 06:02:43;;;;;;;0.10;0.10;;;4.20;99.90;;;;;;5030645;28;20289;-82
2021/04/09 06:05:09;;;;;;;0.30;0.30;;;4.40;99.90;;;;;;5029153;28;20195;-84
2021/04/09 06:07:35;;;;;;;0.13;0.13;;;4.50;99.90;;;;;;5030030;28;20214;-82
2021/04/09 06:10:00;;;;;;;0.37;0.37;;;4.70;99.90;;;;;;5029878;28;20190;-82
2021/04/09 06:12:26;;;;;;;0.40;0.40;;;4.80;99.90;;;;;;5029363;28;20208;-81
2021/04/09 06:14:57;;;;;;;0.23;0.23;;;4.90;99.90;;;;;;5029320;28;20206;-82
2021/04/09 06:17:22;;;;;;;0.47;0.47;;;5.00;99.90;;;;;;5028935;28;20289;-82
2021/04/09 06:19:48;;;;;;;0.80;0.27;;;4.80;99.90;;;;;;5023352;28;20277;-81
2021/04/09 06:22:17;;;;;;;0.33;0.33;;;4.80;99.90;;;;;;5023506;28;20228;-81
2021/04/09 06:24:43;;;;;;;0.50;0.50;;;4.90;99.90;;;;;;5028558;28;20284;-82
2021/04/09 06:27:09;;;;;;;0.60;0.40;;;4.90;99.90;;;;;;5028648;28;20321;-81
2021/04/09 06:29:35;;;;;;;0.43;0.43;;;5.10;99.90;;;;;;5028520;28;20628;-81
2021/04/09 06:32:00;;;;;;;0.87;0.80;;;5.10;99.90;;;;;;5028830;28;20277;-81
2021/04/09 06:34:26;;;;;;;0.33;0.27;;;5.10;99.90;;;;;;5025527;28;20230;-81
2021/04/09 06:36:52;;;;;;;0.20;0.20;;;5.30;99.90;;;;;;5029839;28;20214;-82
2021/04/09 06:39:17;;;;;;;0.10;0.10;;;5.40;99.90;;;;;;5030369;28;20309;-83
2021/04/09 06:41:43;;;;;;;0.20;0.20;;;5.40;99.90;;;;;;5028937;28;20189;-82
2021/04/09 06:44:09;;;;;;;0.20;0.13;;;5.60;99.90;;;;;;5026339;28;20868;-83
2021/04/09 06:46:35;;;;;;;0.17;0.17;;;5.60;99.90;;;;;;5026154;28;20218;-81
2021/04/09 06:49:01;;;;;;;0.20;0.20;;;5.70;99.90;;;;;;5031569;28;20196;-81
2021/04/09 06:51:27;;;;;;;0.37;0.23;;;6.00;99.90;;;;;;5023537;28;20455;-82
2021/04/09 06:53:54;;;;;;;0.20;0.20;;;6.30;99.90;;;;;;5030068;28;20221;-81
2021/04/09 06:56:22;;;;;;;0.60;0.37;;;6.40;99.90;;;;;;5028823;28;20290;-82
2021/04/09 06:58:49;;;;;;;0.33;0.20;;;6.50;99.90;;;;;;5031420;28;20190;-82
2021/04/09 07:01:20;;;;;;;0.13;0.13;;;6.10;99.90;;;;;;5019547;28;20676;-82
2021/04/09 07:03:46;;;;;;;0.60;0.30;;;6.00;99.90;;;;;;5028620;28;20186;-82
2021/04/09 07:06:12;;;;;;;0.43;0.30;;;6.20;99.90;;;;;;5027351;28;20191;-81
2021/04/09 07:08:42;;;;;;;0.10;0.10;;;6.50;99.90;;;;;;5029436;28;20240;-82
2021/04/09 07:11:08;;;;;;;0.40;0.40;;;6.20;99.90;;;;;;5031899;28;20205;-81
2021/04/09 07:13:49;;;;;;;0.43;0.43;;;6.40;99.90;;;;;;5030490;28;20217;-80
2021/04/09 07:16:15;;;;;;;0.10;0.10;;;6.80;99.90;;;;;;5019574;28;20643;-81
2021/04/09 07:18:49;;;;;;;0.13;0.13;;;7.10;99.90;;;;;;5025601;28;20253;-81
2021/04/09 07:21:28;;;;;;;0.63;0.63;;;7.20;99.90;;;;;;5049686;28;20572;-81
2021/04/09 07:24:12;;;;;;;0.50;0.50;;;7.40;99.90;;;;;;5045658;28;20214;-80
2021/04/09 07:26:45;;;;;;;0.30;0.30;;;7.60;99.90;;;;;;5030662;28;20214;-80
2021/04/09 07:29:41;;;;;;;4.30;0.40;;;7.40;99.90;;;;;;5036141;28;20226;-82
2021/04/09 07:32:09;;;;;;;0.10;0.10;;;7.30;99.90;;;;;;5027109;28;20199;-82
2021/04/09 07:34:52;;;;;;;0.10;0.10;;;7.40;99.90;;;;;;5033213;28;20274;-82
2021/04/09 07:37:20;;;;;;;0.43;0.43;;;7.80;99.90;;;;;;5029048;28;20275;-81
2021/04/09 07:39:46;;;;;;;0.10;0.10;;;8.10;99.90;;;;;;5032154;28;20190;-81
2021/04/09 07:42:13;;;;;;;0.73;0.73;;;8.40;99.90;;;;;;5033356;28;20659;-81
2021/04/09 07:44:40;;;;;;;0.67;0.67;;;8.60;99.90;;;;;;5034947;28;20189;-81
2021/04/09 07:47:13;;;;;;;0.40;0.40;;;8.60;99.90;;;;;;5036178;28;20198;-80
2021/04/09 07:49:39;;;;;;;0.47;0.47;;;8.80;99.90;;;;;;5035949;28;20203;-80
2021/04/09 07:52:15;;;;;;;0.37;0.37;;;9.00;99.90;;;;;;5035508;28;20661;-81
2021/04/09 07:54:42;;;;;;;0.50;0.40;;;8.60;99.90;;;;;;5034564;28;20761;-80
2021/04/09 07:57:08;;;;;;;0.93;0.43;;;8.90;99.90;;;;;;5036774;28;20254;-81
2021/04/09 07:59:41;;;;;;;3.80;0.93;;;9.20;99.90;;;;;;5035128;28;20278;-80
2021/04/09 08:02:08;;;;;;;0.30;0.30;;;9.30;99.90;;;;;;5034079;28;20181;-81
2021/04/09 08:04:41;;;;;;;5.93;2.00;;;9.60;99.90;;;;;;5034494;28;20678;-80
2021/04/09 08:07:27;;;;;;;0.37;0.37;;;9.90;99.90;;;;;;5035497;28;20213;-80
2021/04/09 08:09:53;;;;;;;0.90;0.90;;;10.00;99.90;;;;;;5036282;28;20196;-81
2021/04/09 08:12:26;;;;;;;0.40;0.40;;;10.10;99.90;;;;;;5035890;28;20189;-81
2021/04/09 08:14:53;;;;;;;0.50;0.50;;;10.40;99.90;;;;;;5036808;28;20281;-80
2021/04/09 08:17:20;;;;;;;1.03;0.40;;;10.60;99.90;;;;;;5032222;28;20260;-81
2021/04/09 08:19:53;;;;;;;0.40;0.30;;;10.80;99.90;;;;;;5031088;28;20233;-80
2021/04/09 08:22:19;;;;;;;3.00;0.50;;;11.10;99.90;;;;;;5044183;28;20179;-81
2021/04/09 08:24:46;;;;;;;1.10;0.37;;;11.20;99.90;;;;;;5037013;28;20224;-81
2021/04/09 08:27:13;;;;;;;0.30;0.30;;;10.70;99.90;;;;;;5036776;28;20264;-80
2021/04/09 08:29:41;;;;;;;0.20;0.20;;;10.90;99.90;;;;;;5037408;28;20228;-82
2021/04/09 08:32:09;;;;;;;0.40;0.40;;;11.20;99.90;;;;;;5034150;28;20221;-81
2021/04/09 08:34:35;;;;;;;0.43;0.30;;;11.40;99.90;;;;;;5036290;28;20213;-81
2021/04/09 08:37:02;;;;;;;0.30;0.30;;;11.60;99.90;;;;;;5041158;28;20263;-81
2021/04/09 08:39:28;;;;;;;0.40;0.30;;;11.40;99.90;;;;;;5036168;28;20194;-80
2021/04/09 08:41:56;;;;;;;0.40;0.40;;;11.70;99.90;;;;;;5031732;28;20659;-81
2021/04/09 08:44:22;;;;;;;0.33;0.33;;;12.10;99.90;;;;;;5035149;28;20194;-81
2021/04/09 08:46:47;;;;;;;0.30;0.30;;;12.20;99.90;;;;;;5035128;28;20593;-81
2021/04/09 08:49:14;;;;;;;0.47;0.47;;;12.40;99.90;;;;;;5034035;28;20181;-81
2021/04/09 08:51:41;;;;;;;0.30;0.30;;;12.40;99.90;;;;;;5034289;28;20193;-81
2021/04/09 08:54:22;;;;;;;1.80;0.90;;;12.40;99.90;;;;;;5035522;28;20190;-80
2021/04/09 08:56:48;;;;;;;0.47;0.47;;;11.80;99.90;;;;;;5035761;28;20213;-79
2021/04/09 08:59:14;;;;;;;0.20;0.20;;;11.90;99.90;;;;;;5037885;28;20179;-81
2021/04/09 09:01:40;;;;;;;0.63;0.63;;;12.10;99.90;;;;;;5030331;28;20242;-80
2021/04/09 09:04:37;;;;;;;0.60;0.60;;;12.10;99.90;;;;;;5033620;28;20185;-81
2021/04/09 09:07:03;;;;;;;0.47;0.40;;;12.00;99.90;;;;;;5003497;28;20298;-81
2021/04/09 09:09:31;;;;;;;0.90;0.60;;;12.10;99.90;;;;;;5034057;28;20210;-81
2021/04/09 09:12:00;;;;;;;0.57;0.53;;;12.20;99.90;;;;;;5029594;28;20182;-83
2021/04/09 09:14:38;;;;;;;1.40;1.00;;;12.20;99.90;;;;;;5030655;28;20210;-83
2021/04/09 09:17:19;;;;;;;0.53;0.40;;;12.20;99.90;;;;;;5032335;28;20210;-80
2021/04/09 09:19:45;;;;;;;0.93;0.23;;;12.50;99.90;;;;;;5025048;28;20216;-80
2021/04/09 09:22:14;;;;;;;0.50;0.50;;;12.80;99.90;;;;;;5034402;28;20217;-80
2021/04/09 09:25:05;;;;;;;0.40;0.40;;;12.70;99.90;;;;;;5031010;28;20194;-80
2021/04/09 09:27:51;;;;;;;0.50;0.50;;;12.90;99.90;;;;;;5038223;28;20210;-80
2021/04/09 09:30:40;;;;;;;0.37;0.37;;;13.30;99.90;;;;;;5036954;28;20186;-81
2021/04/09 09:33:26;;;;;;;0.83;0.83;;;13.60;99.90;;;;;;5040862;28;20170;-81
2021/04/09 09:36:06;;;;;;;2.10;0.83;;;13.40;99.90;;;;;;5051341;28;20217;-81
2021/04/09 09:38:57;;;;;;;0.40;0.40;;;13.20;99.90;;;;;;5045721;28;20234;-81
2021/04/09 09:41:37;;;;;;;1.43;1.23;;;13.40;99.90;;;;;;5043412;28;20190;-81
2021/04/09 09:44:23;;;;;;;1.63;0.30;;;13.50;99.90;;;;;;5043771;28;20192;-81
2021/04/09 09:47:28;;;;;;;0.30;0.30;;;13.70;99.90;;;;;;5031205;28;20194;-81
2021/04/09 09:50:03;;;;;;;1.00;0.43;;;13.90;99.90;;;;;;5027292;28;20763;-81
2021/04/09 09:52:43;;;;;;;1.73;1.20;;;14.00;99.90;;;;;;5024474;28;20200;-81
2021/04/09 09:55:10;;;;;;;0.47;0.47;;;14.10;99.90;;;;;;5019710;28;20575;-81
2021/04/09 09:57:46;;;;;;;0.40;0.40;;;14.20;99.90;;;;;;5027057;28;20206;-81
2021/04/09 10:00:13;;;;;;;1.13;0.60;;;14.40;99.90;;;;;;5023389;28;20941;-81
2021/04/09 10:02:38;;;;;;;0.63;0.63;;;14.70;99.90;;;;;;5029008;28;20219;-81
2021/04/09 10:05:05;;;;;;;1.00;0.90;;;14.80;99.90;;;;;;5031173;28;20217;-81
2021/04/09 10:07:31;;;;;;;0.47;0.47;;;14.80;99.90;;;;;;5028272;28;20212;-80
2021/04/09 10:09:57;;;;;;;2.20;0.43;;;14.60;99.90;;;;;;5029581;28;20225;-80
2021/04/09 10:12:23;;;;;;;0.70;0.70;;;14.70;99.90;;;;;;5028874;28;20196;-81
2021/04/09 10:14:52;;;;;;;0.43;0.37;;;14.30;99.90;;;;;;5033975;28;20251;-82
2021/04/09 10:17:18;;;;;;;0.50;0.50;;;14.50;99.90;;;;;;5034070;28;20231;-83
2021/04/09 10:20:03;;;;;;;1.50;0.80;;;14.60;99.90;;;;;;5020978;28;20240;-83
2021/04/09 10:22:29;;;;;;;0.23;0.23;;;14.60;99.90;;;;;;5032389;28;20196;-82
2021/04/09 10:24:56;;;;;;;0.30;0.30;;;14.90;99.90;;;;;;5032438;28;20192;-83
2021/04/09 10:27:22;;;;;;;3.10;0.40;;;15.00;99.90;;;;;;5030327;28;20228;-82
2021/04/09 10:29:48;;;;;;;0.43;0.30;;;15.10;99.90;;;;;;5029200;28;20206;-81
2021/04/09 10:32:20;;;;;;;0.20;0.20;;;15.20;99.90;;;;;;5029549;28;20189;-82
2021/04/09 10:34:51;;;;;;;0.50;0.50;;;14.90;99.90;;;;;;5021232;28;20215;-82
2021/04/09 10:37:22;;;;;;;0.80;0.40;;;14.70;99.90;;;;;;5029804;28;20626;-82
2021/04/09 10:39:49;;;;;;;0.30;0.30;;;14.70;99.90;;;;;;5030454;28;20199;-83
2021/04/09 10:42:14;;;;;;;0.60;0.60;;;14.70;99.90;;;;;;5028809;28;20202;-80
2021/04/09 10:44:40;;;;;;;1.30;0.63;;;14.60;99.90;;;;;;5030346;28;20252;-80
2021/04/09 10:47:07;;;;;;;0.40;0.40;;;14.80;99.90;;;;;;5024222;28;20221;-80
2021/04/09 10:49:34;;;;;;;1.90;0.90;;;15.00;99.90;;;;;;5029657;28;20275;-79
2021/04/09 10:52:04;;;;;;;1.10;0.63;;;15.10;99.90;;;;;;5032896;28;20182;-80
2021/04/09 10:54:32;;;;;;;0.20;0.20;;;15.20;99.90;;;;;;5031678;28;20247;-80
2021/04/09 10:57:01;;;;;;;0.30;0.30;;;15.40;99.90;;;;;;5028783;28;20210;-80
2021/04/09 10:59:38;;;;;;;0.57;0.57;;;15.50;99.90;;;;;;5034039;28;20192;-80
2021/04/09 11:02:05;;;;;;;0.63;0.63;;;15.70;99.90;;;;;;5031518;28;20193;-80
2021/04/09 11:04:33;;;;;;;0.73;0.60;;;15.90;99.90;;;;;;5033072;28;20254;-80
2021/04/09 11:07:00;;;;;;;0.67;0.60;;;15.70;99.90;;;;;;5030797;28;20244;-80
2021/04/09 11:09:42;;;;;;;0.60;0.57;;;16.00;99.90;;;;;;5032883;28;20225;-81
2021/04/09 11:12:29;;;;;;;0.10;0.10;;;16.10;99.90;;;;;;5025977;28;20186;-80
2021/04/09 11:15:12;;;;;;;0.50;0.37;;;16.10;99.90;;;;;;5028165;28;20255;-81
2021/04/09 11:17:54;;;;;;;0.30;0.30;;;16.30;99.90;;;;;;5030035;28;20210;-80
2021/04/09 11:20:23;;;;;;;0.20;0.20;;;16.50;99.90;;;;;;5026952;28;20597;-80
2021/04/09 11:23:07;;;;;;;0.47;0.47;;;16.60;99.90;;;;;;5033305;28;20217;-82
2021/04/09 11:25:39;;;;;;;0.93;0.30;;;16.60;99.90;;;;;;5031318;28;20221;-82
2021/04/09 11:28:07;;;;;;;0.60;0.33;;;16.60;99.90;;;;;;5032649;28;20232;-82
2021/04/09 11:30:35;;;;;;;1.17;0.63;;;16.30;99.90;;;;;;5032974;28;20201;-82
2021/04/09 11:33:01;;;;;;;1.10;0.77;;;16.50;99.90;;;;;;5034753;28;20183;-83
2021/04/09 11:35:38;;;;;;;0.30;0.30;;;16.70;99.90;;;;;;5034520;28;20202;-83
2021/04/09 11:38:14;;;;;;;0.43;0.43;;;16.80;99.90;;;;;;5035060;28;20201;-82
2021/04/09 11:40:41;;;;;;;0.30;0.30;;;16.90;99.90;;;;;;5021781;28;20676;-82
2021/04/09 11:43:08;;;;;;;0.53;0.30;;;17.00;99.90;;;;;;5034806;28;20178;-82
2021/04/09 11:45:49;;;;;;;2.87;0.20;;;17.20;99.90;;;;;;5034566;28;20252;-82
2021/04/09 11:48:31;;;;;;;1.30;0.53;;;17.40;99.90;;;;;;5035477;28;20198;-82
2021/04/09 11:51:15;;;;;;;0.73;0.73;;;17.50;99.90;;;;;;5032849;28;20186;-83
2021/04/09 11:53:41;;;;;;;0.57;0.57;;;17.30;99.90;;;;;;5047243;28;20204;-82
2021/04/09 11:56:07;;;;;;;0.77;0.77;;;17.30;99.90;;;;;;5034917;28;20202;-82
2021/04/09 11:58:41;;;;;;;0.40;0.40;;;17.30;99.90;;;;;;5013512;28;20222;-82
2021/04/09 12:01:06;;;;;;;1.30;0.27;;;17.20;99.90;;;;;;5031925;28;20202;-82
2021/04/09 12:03:40;;;;;;;1.17;1.07;;;17.40;99.90;;;;;;5034074;28;20710;-82
2021/04/09 12:06:18;;;;;;;0.63;0.63;;;17.60;99.90;;;;;;5031470;28;20559;-81
2021/04/09 12:08:45;;;;;;;1.10;0.73;;;17.80;99.90;;;;;;5032187;28;20194;-83
2021/04/09 12:11:12;;;;;;;1.60;0.50;;;17.80;99.90;;;;;;5035942;28;20529;-83
2021/04/09 12:13:44;;;;;;;1.17;0.60;;;17.50;99.90;;;;;;5034507;28;20660;-83
2021/04/09 12:16:10;;;;;;;0.30;0.30;;;17.50;99.90;;;;;;5036802;28;20202;-83
2021/04/09 12:18:36;;;;;;;1.10;0.73;;;17.60;99.90;;;;;;5034901;28;20725;-83
2021/04/09 12:21:03;;;;;;;0.30;0.20;;;17.90;99.90;;;;;;5034279;28;20178;-83
2021/04/09 12:23:28;;;;;;;0.27;0.27;;;17.90;99.90;;;;;;5033224;28;20650;-84
2021/04/09 12:25:58;;;;;;;1.90;1.43;;;18.00;99.90;;;;;;5032125;28;20191;-83
2021/04/09 12:28:24;;;;;;;0.60;0.60;;;17.80;99.90;;;;;;5033167;28;20222;-83
2021/04/09 12:30:49;;;;;;;1.23;1.13;;;17.80;99.90;;;;;;5031837;28;20209;-83
2021/04/09 12:33:15;;;;;;;1.10;0.73;;;17.80;99.90;;;;;;5032275;28;20197;-83
2021/04/09 12:35:40;;;;;;;1.20;0.67;;;17.80;99.90;;;;;;5032169;28;20206;-83
2021/04/09 12:38:07;;;;;;;0.20;0.20;;;17.40;99.90;;;;;;5030505;28;20228;-83
2021/04/09 12:40:33;;;;;;;0.63;0.50;;;17.40;99.90;;;;;;5027118;28;20794;-83
2021/04/09 12:42:59;;;;;;;0.30;0.30;;;17.50;99.90;;;;;;5025436;28;20201;-83
2021/04/09 12:45:25;;;;;;;2.23;0.30;;;17.60;99.90;;;;;;5029910;28;20684;-83
2021/04/09 12:47:51;;;;;;;0.40;0.40;;;17.80;99.90;;;;;;5031318;28;20230;-83
2021/04/09 12:50:25;;;;;;;0.20;0.20;;;17.80;99.90;;;;;;5033484;28;20182;-83
2021/04/09 12:52:50;;;;;;;0.40;0.30;;;17.70;99.90;;;;;;5024949;28;20187;-83
2021/04/09 12:55:16;;;;;;;1.27;0.70;;;17.60;99.90;;;;;;5031323;28;20205;-83
2021/04/09 12:57:42;;;;;;;0.80;0.57;;;17.30;99.90;;;;;;5020285;28;20207;-83
2021/04/09 13:00:24;;;;;;;0.30;0.30;;;17.00;99.90;;;;;;5032057;28;20180;-83
2021/04/09 13:02:50;;;;;;;0.30;0.30;;;17.20;99.90;;;;;;5045367;28;20182;-83